createdAt,value
2019-03-04T00:00:16.625Z,12.5
2019-03-04T00:01:16.658Z,12.5
2019-03-04T00:02:16.657Z,12.5
2019-03-04T00:03:16.686Z,12.5
2019-03-04T00:04:16.717Z,12.5
2019-03-04T00:05:16.755Z,12.5
2019-03-04T00:06:16.758Z,12.5
2019-03-04T00:07:16.789Z,12.5
2019-03-04T00:08:16.833Z,12.5
2019-03-04T00:09:16.827Z,12.4
2019-03-04T00:10:16.882Z,12.4
2019-03-04T00:11:16.841Z,12.4
2019-03-04T00:12:17.047Z,12.4
2019-03-04T00:13:16.892Z,12.4
2019-03-04T00:14:16.929Z,12.4
2019-03-04T00:15:16.912Z,12.4
2019-03-04T00:16:16.937Z,12.4
2019-03-04T00:17:16.925Z,12.4
2019-03-04T00:18:16.963Z,12.4
2019-03-04T00:19:17.048Z,12.4
2019-03-04T00:20:16.995Z,12.4
2019-03-04T00:21:17.000Z,12.4
2019-03-04T00:22:17.018Z,12.4
2019-03-04T00:23:17.005Z,12.4
2019-03-04T00:24:17.032Z,12.4
2019-03-04T00:25:17.028Z,12.4
2019-03-04T00:26:17.067Z,12.4
2019-03-04T00:27:17.054Z,12.4
2019-03-04T00:28:17.090Z,12.4
2019-03-04T00:29:17.103Z,12.4
2019-03-04T00:30:17.082Z,12.4
2019-03-04T00:31:17.100Z,12.4
2019-03-04T00:32:17.103Z,12.4
2019-03-04T00:33:17.110Z,12.4
2019-03-04T00:34:17.125Z,12.4
2019-03-04T00:35:17.116Z,12.4
2019-03-04T00:36:17.132Z,12.3
2019-03-04T00:37:17.125Z,12.3
2019-03-04T00:38:17.177Z,12.3
2019-03-04T00:39:17.136Z,12.4
2019-03-04T00:40:17.126Z,12.3
2019-03-04T00:41:17.131Z,12.4
2019-03-04T00:42:17.173Z,12.3
2019-03-04T00:43:49.444Z,12.3
2019-03-04T00:44:17.172Z,12.3
2019-03-04T00:45:17.190Z,12.3
2019-03-04T00:46:17.165Z,12.3
2019-03-04T00:47:17.170Z,12.3
2019-03-04T00:48:17.161Z,12.3
2019-03-04T00:49:17.225Z,12.3
2019-03-04T00:50:17.245Z,12.3
2019-03-04T00:51:17.215Z,12.3
2019-03-04T00:52:17.200Z,12.2
2019-03-04T00:53:17.208Z,12.2
2019-03-04T00:54:17.217Z,12.3
2019-03-04T00:55:17.239Z,12.2
2019-03-04T00:56:17.226Z,12.2
2019-03-04T00:57:17.279Z,12.2
2019-03-04T00:58:17.229Z,12.2
2019-03-04T00:59:17.256Z,12.2
2019-03-04T01:00:17.233Z,12.2
2019-03-04T01:01:17.320Z,12.2
2019-03-04T01:02:17.300Z,12.2
2019-03-04T01:03:17.295Z,12.2
2019-03-04T01:04:17.290Z,12.2
2019-03-04T01:05:17.252Z,12.2
2019-03-04T01:06:17.292Z,12.2
2019-03-04T01:07:17.293Z,12.2
2019-03-04T01:08:17.292Z,12.2
2019-03-04T01:09:17.273Z,12.2
2019-03-04T01:10:17.280Z,12.2
2019-03-04T01:11:17.297Z,12.2
2019-03-04T01:12:17.323Z,12.2
2019-03-04T01:13:19.811Z,12.2
2019-03-04T01:14:17.330Z,12.2
2019-03-04T01:15:17.367Z,12.2
2019-03-04T01:16:17.529Z,12.2
2019-03-04T01:17:17.431Z,12.2
2019-03-04T01:18:17.462Z,12.2
2019-03-04T01:19:17.449Z,12.2
2019-03-04T01:20:17.482Z,12.2
2019-03-04T01:21:17.521Z,12.2
2019-03-04T01:22:17.757Z,12.2
2019-03-04T01:23:17.602Z,12.2
2019-03-04T01:24:17.549Z,12.2
2019-03-04T01:25:17.571Z,12.2
2019-03-04T01:26:17.648Z,12.2
2019-03-04T01:27:17.642Z,12.2
2019-03-04T01:28:17.773Z,12.2
2019-03-04T01:29:17.680Z,12.2
2019-03-04T01:30:17.666Z,12.2
2019-03-04T01:31:17.684Z,12.2
2019-03-04T01:32:17.705Z,12.2
2019-03-04T01:33:17.696Z,12.2
2019-03-04T01:34:17.745Z,12.2
2019-03-04T01:35:17.745Z,12.2
2019-03-04T01:36:17.751Z,12.2
2019-03-04T01:37:17.787Z,12.2
2019-03-04T01:38:17.806Z,12.2
2019-03-04T01:39:17.785Z,12.2
2019-03-04T01:40:17.769Z,12.2
2019-03-04T01:41:17.822Z,12.2
2019-03-04T01:42:17.781Z,12.2
2019-03-04T01:43:17.808Z,12.2
2019-03-04T01:44:17.823Z,12.2
2019-03-04T01:45:17.847Z,12.2
2019-03-04T01:46:17.817Z,12.2
2019-03-04T01:47:17.830Z,12.2
2019-03-04T01:48:17.829Z,12.3
2019-03-04T01:49:17.859Z,12.2
2019-03-04T01:50:17.843Z,12.3
2019-03-04T01:51:17.865Z,12.3
2019-03-04T01:52:17.831Z,12.2
2019-03-04T01:53:17.891Z,12.2
2019-03-04T01:54:17.848Z,12.2
2019-03-04T01:55:17.864Z,12.2
2019-03-04T01:56:17.852Z,12.2
2019-03-04T01:57:17.899Z,12.2
2019-03-04T01:58:17.898Z,12.2
2019-03-04T01:59:17.864Z,12.2
2019-03-04T02:00:17.925Z,12.2
2019-03-04T02:01:17.981Z,12.2
2019-03-04T02:02:17.992Z,12.2
2019-03-04T02:03:18.031Z,12.2
2019-03-04T02:04:18.027Z,12.2
2019-03-04T02:05:18.044Z,12.2
2019-03-04T02:06:18.116Z,12.2
2019-03-04T02:07:18.147Z,12.2
2019-03-04T02:08:18.169Z,12.2
2019-03-04T02:09:18.221Z,12.2
2019-03-04T02:10:18.207Z,12.2
2019-03-04T02:11:18.297Z,12.1
2019-03-04T02:12:18.359Z,12.1
2019-03-04T02:13:21.742Z,12.1
2019-03-04T02:14:18.393Z,12.1
2019-03-04T02:15:18.392Z,12.1
2019-03-04T02:16:18.387Z,12.1
2019-03-04T02:17:18.455Z,12.1
2019-03-04T02:18:18.472Z,12.1
2019-03-04T02:19:18.511Z,12.1
2019-03-04T02:20:18.569Z,12.1
2019-03-04T02:21:18.586Z,12.2
2019-03-04T02:22:18.596Z,12.2
2019-03-04T02:23:18.611Z,12.2
2019-03-04T02:24:18.657Z,12.2
2019-03-04T02:25:18.700Z,12.2
2019-03-04T02:26:18.705Z,12.2
2019-03-04T02:27:18.755Z,12.2
2019-03-04T02:28:20.996Z,12.2
2019-03-04T02:29:18.811Z,12.1
2019-03-04T02:30:18.801Z,12.1
2019-03-04T02:31:18.809Z,12.1
2019-03-04T02:32:18.864Z,12.1
2019-03-04T02:33:18.865Z,12.1
2019-03-04T02:34:18.916Z,12.1
2019-03-04T02:35:18.926Z,12.1
2019-03-04T02:36:19.056Z,12
2019-03-04T02:37:18.981Z,12
2019-03-04T02:38:18.978Z,12
2019-03-04T02:39:18.984Z,12
2019-03-04T02:40:18.996Z,12
2019-03-04T02:41:19.016Z,11.9
2019-03-04T02:42:19.035Z,11.9
2019-03-04T02:43:19.054Z,11.8
2019-03-04T02:44:19.079Z,11.8
2019-03-04T02:45:19.073Z,11.8
2019-03-04T02:46:19.094Z,11.7
2019-03-04T02:47:19.096Z,11.7
2019-03-04T02:48:19.131Z,11.6
2019-03-04T02:49:19.113Z,11.6
2019-03-04T02:50:19.105Z,11.6
2019-03-04T02:51:19.138Z,11.6
2019-03-04T02:52:19.145Z,11.5
2019-03-04T02:53:19.179Z,11.5
2019-03-04T02:54:19.163Z,11.5
2019-03-04T02:55:19.185Z,11.5
2019-03-04T02:56:19.284Z,11.5
2019-03-04T02:57:19.229Z,11.5
2019-03-04T02:58:19.256Z,11.4
2019-03-04T02:59:19.331Z,11.4
2019-03-04T03:00:19.268Z,11.4
2019-03-04T03:01:19.248Z,11.4
2019-03-04T03:02:19.308Z,11.4
2019-03-04T03:03:19.301Z,11.4
2019-03-04T03:04:19.303Z,11.3
2019-03-04T03:05:19.332Z,11.3
2019-03-04T03:06:19.326Z,11.3
2019-03-04T03:07:19.347Z,11.3
2019-03-04T03:08:19.328Z,11.3
2019-03-04T03:09:19.366Z,11.3
2019-03-04T03:10:19.327Z,11.3
2019-03-04T03:11:19.380Z,11.2
2019-03-04T03:12:19.382Z,11.2
2019-03-04T03:13:19.339Z,11.2
2019-03-04T03:14:19.342Z,11.2
2019-03-04T03:15:19.349Z,11.2
2019-03-04T03:16:19.357Z,11.2
2019-03-04T03:17:19.349Z,11.2
2019-03-04T03:18:19.397Z,11.1
2019-03-04T03:19:19.427Z,11.1
2019-03-04T03:20:19.365Z,11.1
2019-03-04T03:21:19.406Z,11.1
2019-03-04T03:22:19.444Z,11
2019-03-04T03:23:19.459Z,11
2019-03-04T03:24:19.516Z,11
2019-03-04T03:25:19.549Z,11
2019-03-04T03:26:22.040Z,10.9
2019-03-04T03:27:19.569Z,10.9
2019-03-04T03:28:19.606Z,10.8
2019-03-04T03:29:19.619Z,10.8
2019-03-04T03:30:19.687Z,10.8
2019-03-04T03:31:19.726Z,10.7
2019-03-04T03:32:19.721Z,10.7
2019-03-04T03:33:19.829Z,10.6
2019-03-04T03:34:19.845Z,10.6
2019-03-04T03:35:19.825Z,10.6
2019-03-04T03:36:19.837Z,10.5
2019-03-04T03:37:19.957Z,10.4
2019-03-04T03:38:19.910Z,10.4
2019-03-04T03:39:19.929Z,10.3
2019-03-04T03:40:20.054Z,10.3
2019-03-04T03:41:20.030Z,10.2
2019-03-04T03:42:20.031Z,10.2
2019-03-04T03:43:20.059Z,10.2
2019-03-04T03:44:20.135Z,10.2
2019-03-04T03:45:20.138Z,10.2
2019-03-04T03:46:20.176Z,10.2
2019-03-04T03:47:20.219Z,10.2
2019-03-04T03:48:20.257Z,10.2
2019-03-04T03:49:20.258Z,10.2
2019-03-04T03:50:20.341Z,10.2
2019-03-04T03:51:20.304Z,10.3
2019-03-04T03:52:20.378Z,10.3
2019-03-04T03:53:20.361Z,10.4
2019-03-04T03:54:20.390Z,10.4
2019-03-04T03:55:20.444Z,10.5
2019-03-04T03:56:20.448Z,10.6
2019-03-04T03:57:20.479Z,10.6
2019-03-04T03:58:20.520Z,10.7
2019-03-04T03:59:20.536Z,10.8
2019-03-04T04:00:20.568Z,10.8
2019-03-04T04:01:20.583Z,10.9
2019-03-04T04:02:20.616Z,10.9
2019-03-04T04:03:20.658Z,10.9
2019-03-04T04:04:20.659Z,11
2019-03-04T04:05:20.668Z,11
2019-03-04T04:06:20.708Z,11.1
2019-03-04T04:07:20.731Z,11.1
2019-03-04T04:08:20.758Z,11.1
2019-03-04T04:09:20.761Z,11.2
2019-03-04T04:10:20.807Z,11.2
2019-03-04T04:11:20.785Z,11.2
2019-03-04T04:12:20.834Z,11.3
2019-03-04T04:13:20.842Z,11.3
2019-03-04T04:14:20.903Z,11.3
2019-03-04T04:15:20.917Z,11.3
2019-03-04T04:16:20.862Z,11.4
2019-03-04T04:17:20.895Z,11.4
2019-03-04T04:18:20.932Z,11.4
2019-03-04T04:19:20.957Z,11.4
2019-03-04T04:20:20.993Z,11.4
2019-03-04T04:21:21.000Z,11.4
2019-03-04T04:22:21.040Z,11.5
2019-03-04T04:23:21.061Z,11.5
2019-03-04T04:24:21.051Z,11.6
2019-03-04T04:25:21.121Z,11.6
2019-03-04T04:26:21.072Z,11.6
2019-03-04T04:27:21.102Z,11.6
2019-03-04T04:28:21.133Z,11.7
2019-03-04T04:29:21.122Z,11.7
2019-03-04T04:30:21.168Z,11.7
2019-03-04T04:31:21.150Z,11.7
2019-03-04T04:32:21.205Z,11.7
2019-03-04T04:33:21.170Z,11.7
2019-03-04T04:34:21.204Z,11.7
2019-03-04T04:35:21.257Z,11.7
2019-03-04T04:36:21.258Z,11.7
2019-03-04T04:37:21.269Z,11.7
2019-03-04T04:38:21.293Z,11.7
2019-03-04T04:39:21.282Z,11.7
2019-03-04T04:40:21.271Z,11.7
2019-03-04T04:41:21.299Z,11.8
2019-03-04T04:42:21.284Z,11.8
2019-03-04T04:43:21.294Z,11.7
2019-03-04T04:44:21.303Z,11.7
2019-03-04T04:45:21.300Z,11.8
2019-03-04T04:46:21.343Z,11.8
2019-03-04T04:47:21.331Z,11.8
2019-03-04T04:48:21.375Z,11.8
2019-03-04T04:49:21.354Z,11.8
2019-03-04T04:50:21.334Z,11.9
2019-03-04T04:51:21.362Z,11.9
2019-03-04T04:52:23.258Z,11.9
2019-03-04T04:53:21.335Z,11.9
2019-03-04T04:54:21.348Z,12
2019-03-04T04:55:21.383Z,12
2019-03-04T04:56:21.387Z,12
2019-03-04T04:57:21.392Z,12
2019-03-04T04:58:21.366Z,12
2019-03-04T04:59:21.382Z,12.1
2019-03-04T05:00:21.423Z,12.1
2019-03-04T05:01:21.421Z,12.1
2019-03-04T05:02:21.384Z,12.2
2019-03-04T05:03:21.417Z,12.2
2019-03-04T05:04:21.415Z,12.3
2019-03-04T05:05:21.406Z,12.3
2019-03-04T05:06:21.422Z,12.3
2019-03-04T05:07:22.482Z,12.4
2019-03-04T05:08:24.052Z,12.4
2019-03-04T05:09:21.433Z,12.4
2019-03-04T05:10:21.451Z,12.4
2019-03-04T05:11:21.568Z,12.4
2019-03-04T05:12:21.538Z,12.5
2019-03-04T05:13:21.533Z,12.5
2019-03-04T05:14:21.457Z,12.5
2019-03-04T05:15:21.467Z,12.5
2019-03-04T05:16:21.477Z,12.5
2019-03-04T05:17:21.472Z,12.5
2019-03-04T05:18:21.457Z,12.6
2019-03-04T05:19:21.493Z,12.6
2019-03-04T05:20:21.589Z,12.6
2019-03-04T05:21:21.562Z,12.6
2019-03-04T05:22:21.564Z,12.6
2019-03-04T05:23:21.621Z,12.6
2019-03-04T05:24:21.640Z,12.6
2019-03-04T05:25:21.724Z,12.6
2019-03-04T05:26:21.712Z,12.6
2019-03-04T05:27:21.720Z,12.6
2019-03-04T05:28:21.730Z,12.6
2019-03-04T05:29:21.754Z,12.6
2019-03-04T05:30:21.771Z,12.6
2019-03-04T05:31:21.823Z,12.7
2019-03-04T05:32:21.863Z,12.7
2019-03-04T05:33:21.869Z,12.7
2019-03-04T05:34:21.879Z,12.7
2019-03-04T05:35:21.890Z,12.7
2019-03-04T05:36:21.939Z,12.7
2019-03-04T05:37:21.923Z,12.7
2019-03-04T05:38:21.947Z,12.7
2019-03-04T05:39:21.983Z,12.7
2019-03-04T05:40:22.035Z,12.7
2019-03-04T05:41:22.008Z,12.8
2019-03-04T05:42:22.034Z,12.8
2019-03-04T05:43:22.047Z,12.8
2019-03-04T05:44:22.075Z,12.8
2019-03-04T05:45:22.117Z,12.8
2019-03-04T05:46:22.091Z,12.8
2019-03-04T05:47:22.351Z,12.9
2019-03-04T05:48:22.173Z,12.9
2019-03-04T05:49:22.177Z,12.9
2019-03-04T05:50:22.181Z,12.9
2019-03-04T05:51:22.178Z,12.9
2019-03-04T05:52:22.226Z,12.9
2019-03-04T05:53:22.218Z,12.9
2019-03-04T05:54:22.244Z,12.9
2019-03-04T05:55:22.227Z,12.9
2019-03-04T05:56:22.289Z,12.9
2019-03-04T05:57:22.252Z,13
2019-03-04T05:58:22.256Z,13
2019-03-04T05:59:22.285Z,13
2019-03-04T06:00:22.310Z,13
2019-03-04T06:01:22.284Z,13
2019-03-04T06:02:22.281Z,13.1
2019-03-04T06:03:22.334Z,13.1
2019-03-04T06:04:22.331Z,13.1
2019-03-04T06:05:22.349Z,13.1
2019-03-04T06:06:22.318Z,13.2
2019-03-04T06:07:22.355Z,13.2
2019-03-04T06:08:22.341Z,13.2
2019-03-04T06:09:22.323Z,13.3
2019-03-04T06:10:22.322Z,13.3
2019-03-04T06:11:22.347Z,13.3
2019-03-04T06:12:22.398Z,13.3
2019-03-04T06:13:22.347Z,13.3
2019-03-04T06:14:22.366Z,13.3
2019-03-04T06:15:22.357Z,13.4
2019-03-04T06:16:22.415Z,13.4
2019-03-04T06:17:22.372Z,13.4
2019-03-04T06:18:22.375Z,13.4
2019-03-04T06:19:22.369Z,13.4
2019-03-04T06:20:23.463Z,13.4
2019-03-04T06:21:22.496Z,13.4
2019-03-04T06:22:22.500Z,13.4
2019-03-04T06:23:22.591Z,13.4
2019-03-04T06:24:22.604Z,13.4
2019-03-04T06:25:22.638Z,13.4
2019-03-04T06:26:22.688Z,13.4
2019-03-04T06:27:23.090Z,13.4
2019-03-04T06:28:22.738Z,13.4
2019-03-04T06:29:22.844Z,13.4
2019-03-04T06:30:22.827Z,13.4
2019-03-04T06:31:22.850Z,13.4
2019-03-04T06:32:22.836Z,13.4
2019-03-04T06:33:25.164Z,13.4
2019-03-04T06:34:25.151Z,13.4
2019-03-04T06:35:22.928Z,13.5
2019-03-04T06:36:22.995Z,13.4
2019-03-04T06:37:23.027Z,13.5
2019-03-04T06:38:23.022Z,13.5
2019-03-04T06:39:23.105Z,13.5
2019-03-04T06:40:23.129Z,13.5
2019-03-04T06:41:23.131Z,13.4
2019-03-04T06:42:23.302Z,13.4
2019-03-04T06:43:23.174Z,13.5
2019-03-04T06:44:23.273Z,13.4
2019-03-04T06:45:23.257Z,13.5
2019-03-04T06:46:23.285Z,13.5
2019-03-04T06:47:23.279Z,13.5
2019-03-04T06:48:23.248Z,13.5
2019-03-04T06:49:24.158Z,13.5
2019-03-04T06:50:23.275Z,13.5
2019-03-04T06:51:23.313Z,13.5
2019-03-04T06:52:23.348Z,13.5
2019-03-04T06:53:23.356Z,13.6
2019-03-04T06:54:23.380Z,13.6
2019-03-04T06:55:23.401Z,13.6
2019-03-04T06:56:23.454Z,13.6
2019-03-04T06:57:28.309Z,13.6
2019-03-04T06:58:23.483Z,13.6
2019-03-04T06:59:23.485Z,13.6
2019-03-04T07:00:23.539Z,13.6
2019-03-04T07:01:23.577Z,13.7
2019-03-04T07:02:23.572Z,13.7
2019-03-04T07:03:23.639Z,13.7
2019-03-04T07:04:23.613Z,13.7
2019-03-04T07:05:23.652Z,13.7
2019-03-04T07:06:23.634Z,13.7
2019-03-04T07:07:23.662Z,13.7
2019-03-04T07:08:23.637Z,13.8
2019-03-04T07:09:23.646Z,13.8
2019-03-04T07:10:23.663Z,13.8
2019-03-04T07:11:23.684Z,13.8
2019-03-04T07:12:24.533Z,13.8
2019-03-04T07:13:23.723Z,13.8
2019-03-04T07:14:23.706Z,13.9
2019-03-04T07:15:23.719Z,13.9
2019-03-04T07:16:23.757Z,14
2019-03-04T07:17:23.771Z,14
2019-03-04T07:18:23.762Z,14
2019-03-04T07:19:23.779Z,14
2019-03-04T07:20:23.809Z,14.1
2019-03-04T07:21:23.790Z,14.1
2019-03-04T07:22:23.803Z,14.1
2019-03-04T07:23:23.850Z,14.1
2019-03-04T07:24:23.875Z,14.2
2019-03-04T07:25:23.893Z,14.2
2019-03-04T07:26:23.857Z,14.2
2019-03-04T07:27:23.874Z,14.3
2019-03-04T07:28:23.877Z,14.3
2019-03-04T07:30:23.906Z,14.4
2019-03-04T07:30:28.813Z,14.4
2019-03-04T07:31:23.877Z,14.4
2019-03-04T07:32:23.895Z,14.5
2019-03-04T07:33:23.911Z,14.5
2019-03-04T07:34:23.919Z,14.5
2019-03-04T07:35:23.893Z,14.6
2019-03-04T07:36:23.930Z,14.6
2019-03-04T07:37:23.900Z,14.7
2019-03-04T07:38:23.947Z,14.8
2019-03-04T07:39:23.895Z,14.8
2019-03-04T07:40:23.949Z,14.9
2019-03-04T07:41:23.918Z,14.9
2019-03-04T07:42:23.944Z,15
2019-03-04T07:43:23.978Z,15
2019-03-04T07:44:23.965Z,15
2019-03-04T07:45:24.001Z,15.1
2019-03-04T07:46:24.032Z,15.1
2019-03-04T07:47:24.037Z,15.1
2019-03-04T07:48:24.087Z,15.2
2019-03-04T07:49:24.141Z,15.2
2019-03-04T07:50:24.164Z,15.2
2019-03-04T07:51:24.193Z,15.3
2019-03-04T07:52:24.215Z,15.3
2019-03-04T07:53:24.337Z,15.3
2019-03-04T07:54:24.281Z,15.3
2019-03-04T07:55:24.323Z,15.4
2019-03-04T07:56:24.336Z,15.4
2019-03-04T07:57:24.421Z,15.4
2019-03-04T07:58:26.665Z,15.5
2019-03-04T07:59:24.510Z,15.5
2019-03-04T08:00:25.050Z,15.5
2019-03-04T08:01:24.609Z,15.5
2019-03-04T08:02:24.539Z,15.6
2019-03-04T08:03:24.583Z,15.6
2019-03-04T08:04:24.610Z,15.6
2019-03-04T08:05:24.670Z,15.6
2019-03-04T08:06:24.655Z,15.7
2019-03-04T08:07:24.717Z,15.7
2019-03-04T08:08:24.733Z,15.7
2019-03-04T08:09:24.789Z,15.7
2019-03-04T08:10:24.844Z,15.7
2019-03-04T08:11:24.806Z,15.7
2019-03-04T08:12:24.895Z,15.7
2019-03-04T08:13:24.887Z,15.7
2019-03-04T08:14:24.926Z,15.8
2019-03-04T08:15:24.959Z,15.8
2019-03-04T08:16:25.001Z,15.8
2019-03-04T08:17:25.014Z,15.8
2019-03-04T08:18:25.038Z,15.9
2019-03-04T08:19:25.069Z,15.9
2019-03-04T08:20:25.110Z,15.9
2019-03-04T08:21:25.117Z,16
2019-03-04T08:22:25.158Z,16
2019-03-04T08:23:25.173Z,16.1
2019-03-04T08:24:25.179Z,16.1
2019-03-04T08:25:25.176Z,16.1
2019-03-04T08:26:25.198Z,16.1
2019-03-04T08:27:25.204Z,16.1
2019-03-04T08:28:25.206Z,16.1
2019-03-04T08:29:25.257Z,16.1
2019-03-04T08:30:25.271Z,16.1
2019-03-04T08:31:25.306Z,16
2019-03-04T08:32:25.302Z,16
2019-03-04T08:33:25.313Z,16
2019-03-04T08:34:30.921Z,16
2019-03-04T08:35:25.372Z,15.9
2019-03-04T08:36:25.463Z,15.9
2019-03-04T08:37:25.408Z,15.9
2019-03-04T08:38:25.421Z,15.8
2019-03-04T08:39:25.439Z,15.8
2019-03-04T08:40:25.454Z,15.8
2019-03-04T08:41:25.431Z,15.8
2019-03-04T08:42:25.457Z,15.8
2019-03-04T08:43:25.450Z,15.8
2019-03-04T08:44:25.498Z,15.8
2019-03-04T08:45:25.524Z,15.8
2019-03-04T08:46:25.618Z,15.8
2019-03-04T08:47:25.517Z,15.8
2019-03-04T08:48:25.560Z,15.8
2019-03-04T08:49:25.533Z,15.9
2019-03-04T08:50:25.575Z,15.9
2019-03-04T08:51:25.608Z,15.9
2019-03-04T08:52:25.599Z,15.9
2019-03-04T08:53:25.614Z,16
2019-03-04T08:54:25.599Z,16
2019-03-04T08:55:25.618Z,16
2019-03-04T08:56:25.601Z,16
2019-03-04T08:57:25.716Z,16.1
2019-03-04T08:58:25.654Z,16.1
2019-03-04T08:59:25.656Z,16.1
2019-03-04T09:00:25.618Z,16.1
2019-03-04T09:01:25.639Z,16.1
2019-03-04T09:02:25.685Z,16.1
2019-03-04T09:03:25.635Z,16.2
2019-03-04T09:04:25.690Z,16.2
2019-03-04T09:05:25.666Z,16.2
2019-03-04T09:06:25.666Z,16.3
2019-03-04T09:07:25.670Z,16.3
2019-03-04T09:08:25.718Z,16.3
2019-03-04T09:09:25.699Z,16.3
2019-03-04T09:10:25.671Z,16.3
2019-03-04T09:11:25.680Z,16.3
2019-03-04T09:12:25.702Z,16.4
2019-03-04T09:13:25.690Z,16.4
2019-03-04T09:14:25.697Z,16.4
2019-03-04T09:15:25.707Z,16.4
2019-03-04T09:16:25.730Z,16.4
2019-03-04T09:17:25.728Z,16.5
2019-03-04T09:18:25.724Z,16.6
2019-03-04T09:19:25.769Z,16.7
2019-03-04T09:20:25.762Z,16.8
2019-03-04T09:21:25.788Z,16.8
2019-03-04T09:22:25.780Z,16.9
2019-03-04T09:23:25.798Z,17
2019-03-04T09:24:25.775Z,17.1
2019-03-04T09:25:30.242Z,17.2
2019-03-04T09:26:28.304Z,17.2
2019-03-04T09:27:25.780Z,17.3
2019-03-04T09:28:25.810Z,17.3
2019-03-04T09:29:25.794Z,17.3
2019-03-04T09:30:25.830Z,17.3
2019-03-04T09:31:25.851Z,17.4
2019-03-04T09:32:25.831Z,17.4
2019-03-04T09:33:25.840Z,17.4
2019-03-04T09:34:25.819Z,17.3
2019-03-04T09:35:25.823Z,17.3
2019-03-04T09:36:25.838Z,17.3
2019-03-04T09:37:25.863Z,17.2
2019-03-04T09:38:25.841Z,17.2
2019-03-04T09:39:25.853Z,17.2
2019-03-04T09:40:25.868Z,17.2
2019-03-04T09:41:25.878Z,17.2
2019-03-04T09:42:25.863Z,17.2
2019-03-04T09:43:25.857Z,17.2
2019-03-04T09:44:25.883Z,17.3
2019-03-04T09:45:25.857Z,17.3
2019-03-04T09:46:26.028Z,17.2
2019-03-04T09:47:25.937Z,17.2
2019-03-04T09:48:25.956Z,17.1
2019-03-04T09:49:25.990Z,17.1
2019-03-04T09:50:25.977Z,17
2019-03-04T09:51:26.067Z,16.9
2019-03-04T09:52:25.979Z,16.9
2019-03-04T09:53:26.018Z,16.8
2019-03-04T09:54:26.019Z,16.8
2019-03-04T09:55:26.061Z,16.8
2019-03-04T09:56:26.066Z,16.8
2019-03-04T09:57:26.121Z,16.8
2019-03-04T09:58:26.099Z,16.8
2019-03-04T09:59:26.100Z,16.9
2019-03-04T10:00:26.082Z,16.9
2019-03-04T10:01:26.145Z,17
2019-03-04T10:02:26.161Z,17
2019-03-04T10:03:26.163Z,17.1
2019-03-04T10:04:26.158Z,17.2
2019-03-04T10:05:26.149Z,17.3
2019-03-04T10:06:26.209Z,17.4
2019-03-04T10:07:26.213Z,17.5
2019-03-04T10:08:32.701Z,17.6
2019-03-04T10:09:26.187Z,17.7
2019-03-04T10:10:26.204Z,17.7
2019-03-04T10:11:26.239Z,17.8
2019-03-04T10:12:27.060Z,17.8
2019-03-04T10:13:26.229Z,17.9
2019-03-04T10:14:26.334Z,18
2019-03-04T10:15:26.228Z,18.1
2019-03-04T10:16:26.245Z,18.2
2019-03-04T10:17:26.295Z,18.2
2019-03-04T10:18:26.243Z,18.2
2019-03-04T10:19:26.298Z,18.2
2019-03-04T10:20:26.260Z,18.2
2019-03-04T10:21:26.262Z,18.1
2019-03-04T10:22:26.552Z,18.1
2019-03-04T10:23:26.263Z,18
2019-03-04T10:24:26.281Z,18
2019-03-04T10:25:26.264Z,18
2019-03-04T10:26:26.299Z,18
2019-03-04T10:27:26.277Z,18
2019-03-04T10:28:26.322Z,18
2019-03-04T10:29:26.394Z,17.9
2019-03-04T10:30:26.540Z,17.9
2019-03-04T10:31:26.606Z,17.8
2019-03-04T10:32:26.480Z,17.8
2019-03-04T10:32:48.070Z,17.8
2019-03-04T10:33:47.905Z,17.7
2019-03-04T10:34:47.927Z,17.7
2019-03-04T10:35:47.933Z,17.7
2019-03-04T10:36:47.994Z,17.6
2019-03-04T10:37:47.975Z,17.6
2019-03-04T10:38:47.952Z,17.6
2019-03-04T10:39:48.044Z,17.5
2019-03-04T10:40:50.325Z,17.5
2019-03-04T10:41:48.021Z,17.5
2019-03-04T10:42:48.004Z,17.5
2019-03-04T10:43:48.022Z,17.4
2019-03-04T10:44:48.034Z,17.4
2019-03-04T10:45:48.144Z,17.4
2019-03-04T10:46:48.073Z,17.4
2019-03-04T10:47:48.082Z,17.4
2019-03-04T10:48:48.119Z,17.3
2019-03-04T10:49:48.076Z,17.3
2019-03-04T10:50:48.182Z,17.3
2019-03-04T10:51:48.108Z,17.3
2019-03-04T10:52:48.150Z,17.3
2019-03-04T10:53:48.161Z,17.3
2019-03-04T10:54:48.159Z,17.2
2019-03-04T10:55:48.167Z,17.2
2019-03-04T10:56:48.205Z,17.2
2019-03-04T10:57:48.181Z,17.2
2019-03-04T10:58:48.181Z,17.3
2019-03-04T10:59:48.220Z,17.3
2019-03-04T11:00:48.189Z,17.4
2019-03-04T11:01:49.979Z,17.5
2019-03-04T11:02:48.246Z,17.5
2019-03-04T11:03:48.229Z,17.5
2019-03-04T11:04:48.254Z,17.5
2019-03-04T11:05:48.241Z,17.5
2019-03-04T11:06:48.280Z,17.5
2019-03-04T11:07:48.295Z,17.5
2019-03-04T11:08:48.273Z,17.6
2019-03-04T11:09:48.262Z,17.6
2019-03-04T11:10:48.328Z,17.6
2019-03-04T11:11:48.309Z,17.6
2019-03-04T11:12:48.346Z,17.6
2019-03-04T11:13:48.298Z,17.6
2019-03-04T11:14:48.323Z,17.6
2019-03-04T11:15:48.315Z,17.6
2019-03-04T11:16:48.424Z,17.6
2019-03-04T11:17:48.377Z,17.6
2019-03-04T11:18:48.365Z,17.6
2019-03-04T11:19:48.392Z,17.6
2019-03-04T11:20:48.416Z,17.7
2019-03-04T11:21:48.414Z,17.7
2019-03-04T11:22:48.409Z,17.7
2019-03-04T11:23:48.463Z,17.8
2019-03-04T11:24:48.455Z,17.7
2019-03-04T11:25:48.471Z,17.7
2019-03-04T11:26:48.478Z,17.7
2019-03-04T11:27:48.495Z,17.7
2019-03-04T11:28:48.485Z,17.7
2019-03-04T11:29:48.527Z,17.7
2019-03-04T11:30:48.545Z,17.8
2019-03-04T11:31:48.521Z,17.9
2019-03-04T11:32:48.520Z,18
2019-03-04T11:33:48.534Z,18.1
2019-03-04T11:34:48.566Z,18.2
2019-03-04T11:35:49.645Z,18.3
2019-03-04T11:36:48.549Z,18.4
2019-03-04T11:37:48.563Z,18.4
2019-03-04T11:38:48.572Z,18.5
2019-03-04T11:39:48.565Z,18.5
2019-03-04T11:40:48.569Z,18.5
2019-03-04T11:41:48.551Z,18.6
2019-03-04T11:42:50.503Z,18.6
2019-03-04T11:43:48.590Z,18.6
2019-03-04T11:44:48.616Z,18.5
2019-03-04T11:45:48.703Z,18.5
2019-03-04T11:46:48.701Z,18.5
2019-03-04T11:47:48.760Z,18.4
2019-03-04T11:48:48.801Z,18.4
2019-03-04T11:49:48.817Z,18.3
2019-03-04T11:50:48.873Z,18.2
2019-03-04T11:51:48.889Z,18.2
2019-03-04T11:52:48.908Z,18.2
2019-03-04T11:53:48.954Z,18.2
2019-03-04T11:54:48.975Z,18.2
2019-03-04T11:55:48.983Z,18.2
2019-03-04T11:56:49.076Z,18.2
2019-03-04T11:57:49.119Z,18.2
2019-03-04T11:58:49.069Z,18.1
2019-03-04T11:59:49.110Z,18.1
2019-03-04T12:00:49.162Z,18.1
2019-03-04T12:01:49.211Z,18
2019-03-04T12:02:49.216Z,18
2019-03-04T12:03:49.279Z,18.1
2019-03-04T12:04:49.322Z,18.1
2019-03-04T12:05:49.386Z,18.2
2019-03-04T12:06:49.375Z,18.1
2019-03-04T12:07:49.354Z,18.2
2019-03-04T12:08:49.420Z,18.2
2019-03-04T12:09:49.392Z,18.1
2019-03-04T12:10:49.433Z,18.1
2019-03-04T12:11:49.474Z,18.1
2019-03-04T12:12:49.533Z,18
2019-03-04T12:13:49.538Z,18
2019-03-04T12:14:49.631Z,18
2019-03-04T12:15:49.617Z,18
2019-03-04T12:16:50.779Z,18
2019-03-04T12:17:49.690Z,18
2019-03-04T12:18:49.748Z,17.9
2019-03-04T12:19:49.776Z,17.9
2019-03-04T12:20:49.728Z,18
2019-03-04T12:21:49.756Z,18
2019-03-04T12:22:49.863Z,18.1
2019-03-04T12:23:49.842Z,18.2
2019-03-04T12:24:49.857Z,18.2
2019-03-04T12:25:49.836Z,18.3
2019-03-04T12:26:49.905Z,18.3
2019-03-04T12:27:49.924Z,18.3
2019-03-04T12:28:49.902Z,18.3
2019-03-04T12:29:49.946Z,18.3
2019-03-04T12:30:49.961Z,18.2
2019-03-04T12:31:49.965Z,18.1
2019-03-04T12:32:49.992Z,18
2019-03-04T12:33:49.990Z,17.9
2019-03-04T12:34:50.030Z,17.8
2019-03-04T12:35:50.036Z,17.7
2019-03-04T12:36:50.059Z,17.5
2019-03-04T12:37:50.054Z,17.4
2019-03-04T12:38:50.152Z,17.3
2019-03-04T12:39:50.095Z,17.2
2019-03-04T12:40:50.109Z,17.1
2019-03-04T12:41:50.166Z,17
2019-03-04T12:42:50.104Z,17
2019-03-04T12:43:50.182Z,16.9
2019-03-04T12:44:50.141Z,16.9
2019-03-04T12:45:50.176Z,16.8
2019-03-04T12:46:50.217Z,16.8
2019-03-04T12:47:50.185Z,16.8
2019-03-04T12:48:50.236Z,16.7
2019-03-04T12:49:50.205Z,16.7
2019-03-04T12:50:50.229Z,16.7
2019-03-04T12:51:50.217Z,16.7
2019-03-04T12:52:50.218Z,16.7
2019-03-04T12:53:50.246Z,16.7
2019-03-04T12:54:50.253Z,16.7
2019-03-04T12:55:50.231Z,16.7
2019-03-04T12:56:50.224Z,16.7
2019-03-04T12:57:50.286Z,16.7
2019-03-04T12:58:50.245Z,16.7
2019-03-04T12:59:50.325Z,16.7
2019-03-04T13:00:50.272Z,16.7
2019-03-04T13:01:50.276Z,16.7
2019-03-04T13:02:57.323Z,16.8
2019-03-04T13:03:50.330Z,16.8
2019-03-04T13:04:50.421Z,16.8
2019-03-04T13:05:50.437Z,16.9
2019-03-04T13:06:52.962Z,16.9
2019-03-04T13:08:22.723Z,16.9
2019-03-04T13:08:50.538Z,17
2019-03-04T13:09:50.606Z,17
2019-03-04T13:10:50.635Z,17
2019-03-04T13:11:50.681Z,16.9
2019-03-04T13:12:50.718Z,16.9
2019-03-04T13:13:50.719Z,16.8
2019-03-04T13:14:50.731Z,16.8
2019-03-04T13:15:50.823Z,16.7
2019-03-04T13:16:50.837Z,16.7
2019-03-04T13:17:50.839Z,16.6
2019-03-04T13:18:50.903Z,16.6
2019-03-04T13:19:50.874Z,16.5
2019-03-04T13:20:50.910Z,16.5
2019-03-04T13:21:50.940Z,16.4